createdAt,value
2018-11-06T00:00:57.444Z,9.22
2018-11-06T00:05:59.898Z,9.07
2018-11-06T00:11:02.331Z,9.03
2018-11-06T00:16:05.314Z,8.91
2018-11-06T00:21:07.979Z,8.92
2018-11-06T00:26:10.324Z,8.78
2018-11-06T00:31:12.760Z,8.78
2018-11-06T00:36:15.095Z,8.83
2018-11-06T00:41:17.592Z,8.72
2018-11-06T00:46:20.108Z,8.53
2018-11-06T00:51:22.639Z,8.48
2018-11-06T00:56:25.029Z,8.38
2018-11-06T01:01:27.576Z,8.39
2018-11-06T01:06:30.155Z,8.08
2018-11-06T01:11:40.120Z,8.25
2018-11-06T01:16:49.267Z,8.11
2018-11-06T01:21:51.816Z,8.26
2018-11-06T01:26:54.298Z,8.35
2018-11-06T01:31:56.869Z,8.01
2018-11-06T01:36:59.583Z,8.25
2018-11-06T01:42:01.972Z,8.20
2018-11-06T01:47:04.682Z,8.21
2018-11-06T01:52:07.058Z,8.35
2018-11-06T01:57:09.674Z,8.23
2018-11-06T02:02:12.085Z,8.09
2018-11-06T02:07:14.512Z,8.11
2018-11-06T02:12:17.091Z,7.99
2018-11-06T02:17:19.584Z,8.24
2018-11-06T02:22:22.125Z,8.00
2018-11-06T02:27:25.692Z,8.08
2018-11-06T02:32:28.149Z,8.17
2018-11-06T02:37:30.547Z,8.10
2018-11-06T02:42:33.020Z,8.13
2018-11-06T02:47:35.551Z,7.89
2018-11-06T02:52:37.971Z,7.96
2018-11-06T02:57:40.914Z,7.71
2018-11-06T03:02:43.889Z,7.78
2018-11-06T03:07:46.380Z,7.39
2018-11-06T03:12:48.767Z,7.52
2018-11-06T03:17:51.135Z,7.54
2018-11-06T03:22:53.613Z,7.94
2018-11-06T03:27:56.019Z,7.96
2018-11-06T03:32:58.456Z,7.97
2018-11-06T03:38:01.351Z,7.79
2018-11-06T03:43:03.811Z,7.76
2018-11-06T03:48:06.208Z,7.77
2018-11-06T03:53:08.618Z,7.74
2018-11-06T03:58:11.032Z,7.59
2018-11-06T04:03:13.459Z,7.57
2018-11-06T04:08:15.910Z,7.76
2018-11-06T04:13:18.261Z,7.71
2018-11-06T04:18:20.700Z,7.69
2018-11-06T04:23:23.071Z,7.43
2018-11-06T04:28:25.418Z,7.63
2018-11-06T04:33:27.818Z,7.54
2018-11-06T04:38:30.229Z,7.46
2018-11-06T04:43:32.615Z,7.19
2018-11-06T04:48:34.948Z,7.36
2018-11-06T04:53:37.408Z,7.43
2018-11-06T04:58:39.780Z,7.68
2018-11-06T05:03:46.532Z,7.46
2018-11-06T05:08:48.896Z,7.40
2018-11-06T05:13:51.350Z,7.14
2018-11-06T05:18:53.674Z,7.34
2018-11-06T05:23:56.090Z,7.18
2018-11-06T05:28:58.490Z,7.20
2018-11-06T05:34:00.891Z,7.14
2018-11-06T05:39:08.297Z,7.10
2018-11-06T05:44:11.760Z,7.26
2018-11-06T05:49:14.482Z,7.21
2018-11-06T05:54:17.416Z,7.01
2018-11-06T05:59:19.830Z,7.13
2018-11-06T06:04:22.376Z,7.03
2018-11-06T06:09:24.985Z,7.19
2018-11-06T06:14:27.424Z,7.13
2018-11-06T06:19:31.037Z,7.14
2018-11-06T06:24:33.544Z,7.27
2018-11-06T06:29:35.988Z,7.43
2018-11-06T06:34:38.811Z,7.24
2018-11-06T06:39:41.118Z,7.27
2018-11-06T06:44:43.471Z,7.13
2018-11-06T06:49:45.832Z,7.42
2018-11-06T06:54:48.261Z,7.30
2018-11-06T06:59:50.646Z,7.44
2018-11-06T07:04:53.099Z,7.53
2018-11-06T07:09:55.491Z,7.41
2018-11-06T07:14:57.947Z,7.53
2018-11-06T07:20:00.380Z,7.21
2018-11-06T07:25:02.756Z,7.30
2018-11-06T07:30:07.665Z,7.42
2018-11-06T07:35:10.736Z,7.68
2018-11-06T07:40:14.387Z,7.87
2018-11-06T07:45:18.214Z,7.82
2018-11-06T07:50:20.639Z,7.98
2018-11-06T07:55:23.053Z,8.22
2018-11-06T08:00:26.109Z,8.21
2018-11-06T08:05:28.529Z,8.32
2018-11-06T08:10:30.892Z,8.26
2018-11-06T08:15:33.213Z,8.29
2018-11-06T08:20:35.592Z,8.38
2018-11-06T08:25:37.927Z,8.37
2018-11-06T08:30:40.340Z,8.60
2018-11-06T08:35:42.670Z,8.69
2018-11-06T08:40:45.821Z,8.82
2018-11-06T08:45:48.283Z,8.98
2018-11-06T08:50:50.681Z,9.04
2018-11-06T08:55:53.078Z,9.15
2018-11-06T09:00:55.487Z,9.22
2018-11-06T09:05:57.938Z,9.25
2018-11-06T09:11:00.300Z,9.41
2018-11-06T09:16:02.660Z,9.41
2018-11-06T09:21:05.126Z,9.56
2018-11-06T09:26:07.510Z,9.67
2018-11-06T09:31:10.761Z,9.87
2018-11-06T09:36:13.143Z,9.95
2018-11-06T09:41:15.560Z,10.12
2018-11-06T09:46:17.926Z,10.20
2018-11-06T09:51:20.338Z,10.36
2018-11-06T09:56:22.707Z,10.38
2018-11-06T10:01:25.028Z,10.54
2018-11-06T10:06:28.497Z,10.59
2018-11-06T10:11:30.847Z,10.60
2018-11-06T10:16:33.408Z,10.71
2018-11-06T10:21:35.865Z,10.79
2018-11-06T10:26:38.283Z,10.90
2018-11-06T10:31:40.764Z,10.88
2018-11-06T10:36:43.323Z,10.92
2018-11-06T10:41:45.709Z,10.96
2018-11-06T10:46:48.503Z,11.05
2018-11-06T10:51:50.925Z,11.10
2018-11-06T10:56:53.319Z,11.22
2018-11-06T11:02:01.351Z,11.22
2018-11-06T11:07:03.812Z,11.24
2018-11-06T11:12:06.179Z,11.62
2018-11-06T11:17:08.650Z,11.51
2018-11-06T11:22:11.251Z,11.97
2018-11-06T11:27:13.671Z,11.79
2018-11-06T11:32:16.443Z,11.59
2018-11-06T11:37:18.875Z,11.57
2018-11-06T11:42:21.295Z,11.68
2018-11-06T11:47:23.719Z,11.83
2018-11-06T11:52:26.170Z,11.85
2018-11-06T11:57:28.587Z,11.98
2018-11-06T12:02:31.013Z,11.94
2018-11-06T12:07:33.404Z,11.99
2018-11-06T12:12:35.839Z,12.01
2018-11-06T12:17:38.553Z,12.00
2018-11-06T12:22:41.333Z,12.09
2018-11-06T12:27:43.988Z,12.09
2018-11-06T12:32:46.689Z,12.24
2018-11-06T12:37:49.067Z,12.21
2018-11-06T12:42:51.566Z,12.11
2018-11-06T12:47:54.000Z,12.15
2018-11-06T12:52:56.504Z,12.16
2018-11-06T12:57:58.860Z,12.17
2018-11-06T13:03:01.220Z,12.01
2018-11-06T13:08:03.659Z,12.22
2018-11-06T13:13:06.112Z,12.31
2018-11-06T13:18:08.499Z,12.03
2018-11-06T13:23:10.832Z,12.21
2018-11-06T13:28:13.220Z,12.53
2018-11-06T13:33:15.715Z,12.65
2018-11-06T13:38:18.147Z,12.33
2018-11-06T13:43:20.639Z,12.41
2018-11-06T13:48:22.915Z,12.48
2018-11-06T13:53:25.359Z,12.49
2018-11-06T13:58:27.743Z,12.68
2018-11-06T14:03:30.123Z,12.76
2018-11-06T14:08:32.780Z,12.68
2018-11-06T14:13:35.264Z,12.93
2018-11-06T14:18:37.665Z,13.02
2018-11-06T14:23:40.036Z,13.07
2018-11-06T14:28:42.504Z,12.65
2018-11-06T14:33:44.899Z,12.79
2018-11-06T14:38:47.281Z,12.68
2018-11-06T14:43:49.750Z,12.68
2018-11-06T14:48:52.310Z,12.68
2018-11-06T14:53:54.620Z,12.36
2018-11-06T14:58:57.036Z,12.23
2018-11-06T15:03:59.522Z,12.16
2018-11-06T15:09:01.988Z,12.27
2018-11-06T15:14:04.647Z,12.13
2018-11-06T15:19:07.034Z,11.89
2018-11-06T15:24:09.566Z,12.71
2018-11-06T15:29:11.972Z,12.37
2018-11-06T15:34:14.345Z,12.07
2018-11-06T15:39:16.787Z,12.04
2018-11-06T15:44:19.144Z,11.91
2018-11-06T15:49:21.667Z,11.87
2018-11-06T15:54:24.050Z,11.95
2018-11-06T15:59:26.432Z,11.98
2018-11-06T16:04:29.573Z,11.85
2018-11-06T16:09:32.025Z,11.67
2018-11-06T16:14:35.067Z,11.63
2018-11-06T16:19:37.448Z,11.64
2018-11-06T16:24:39.900Z,11.42
2018-11-06T16:29:42.366Z,11.46
2018-11-06T16:34:44.767Z,11.52
2018-11-06T16:39:47.173Z,11.48
2018-11-06T16:44:49.607Z,11.43
2018-11-06T16:49:51.971Z,11.55
2018-11-06T16:54:54.450Z,11.49
2018-11-06T16:59:56.884Z,11.33
2018-11-06T17:04:59.243Z,11.79
2018-11-06T17:10:01.636Z,11.72
2018-11-06T17:15:05.213Z,11.43
2018-11-06T17:20:13.299Z,11.29
2018-11-06T17:25:17.155Z,11.27
2018-11-06T17:30:19.711Z,11.45
2018-11-06T17:35:22.148Z,11.40
2018-11-06T17:40:24.483Z,11.20
2018-11-06T17:45:26.883Z,11.23
2018-11-06T17:50:29.226Z,11.11
2018-11-06T17:55:32.005Z,11.19
2018-11-06T18:00:34.303Z,11.34
2018-11-06T18:05:37.182Z,11.20
2018-11-06T18:10:39.591Z,10.87
2018-11-06T18:15:41.969Z,10.73
2018-11-06T18:20:44.389Z,10.68
2018-11-06T18:25:47.105Z,10.58
2018-11-06T18:30:49.443Z,10.50
2018-11-06T18:35:51.903Z,10.47
2018-11-06T18:40:54.337Z,10.40
2018-11-06T18:45:56.688Z,10.36
2018-11-06T18:50:59.148Z,10.38
2018-11-06T18:56:06.606Z,10.31
2018-11-06T19:01:09.072Z,10.31
2018-11-06T19:06:11.525Z,10.26
2018-11-06T19:11:13.970Z,10.20
2018-11-06T19:16:16.576Z,10.14
2018-11-06T19:21:19.491Z,10.13
2018-11-06T19:26:21.881Z,10.10
2018-11-06T19:31:24.381Z,10.06
2018-11-06T19:36:27.295Z,9.98
2018-11-06T19:41:29.626Z,10.01
2018-11-06T19:46:32.033Z,9.91
2018-11-06T19:51:34.727Z,9.86
2018-11-06T19:56:37.716Z,9.80
2018-11-06T20:01:40.130Z,9.78
2018-11-06T20:06:42.575Z,9.74
2018-11-06T20:11:46.044Z,9.69
2018-11-06T20:16:48.339Z,9.76
2018-11-06T20:21:50.785Z,9.67
2018-11-06T20:26:53.226Z,9.60
2018-11-06T20:32:12.573Z,10.57
2018-11-06T20:37:16.456Z,9.51
2018-11-06T20:42:19.024Z,9.39
2018-11-06T20:47:21.599Z,9.44
2018-11-06T20:52:24.223Z,9.28
2018-11-06T21:02:37.528Z,9.23
2018-11-06T21:07:40.034Z,9.39
2018-11-06T21:12:42.632Z,9.29
2018-11-06T21:17:45.202Z,9.21
2018-11-06T21:22:47.753Z,9.29
2018-11-06T21:27:50.289Z,9.29
2018-11-06T21:32:53.427Z,9.30
2018-11-06T21:37:55.959Z,9.21
2018-11-06T21:42:58.852Z,9.18
2018-11-06T21:48:01.736Z,9.10
2018-11-06T21:53:04.352Z,9.22
2018-11-06T21:58:06.742Z,9.20
2018-11-06T22:03:09.432Z,9.16
2018-11-06T22:08:11.790Z,9.27
2018-11-06T22:13:14.275Z,9.29
2018-11-06T22:18:16.718Z,9.33
2018-11-06T22:23:19.336Z,9.38
2018-11-06T22:28:21.788Z,9.44
2018-11-06T22:33:24.128Z,9.39
2018-11-06T22:38:26.756Z,9.29
2018-11-06T22:43:29.111Z,9.12
2018-11-06T22:48:31.644Z,9.16
2018-11-06T22:58:49.303Z,9.13
2018-11-06T23:03:59.012Z,9.06
2018-11-06T23:09:04.280Z,9.02
2018-11-06T23:19:29.137Z,8.97
2018-11-06T23:30:12.839Z,8.90
2018-11-06T23:40:31.619Z,8.85
2018-11-06T23:45:35.516Z,8.84
2018-11-06T23:50:38.084Z,8.81
2018-11-06T23:55:41.817Z,8.78
